Time;durP1;ratioP1;P1;durP2;ratioP2;P2;SDS_P1;SDS_P2;PMS_P1;PMS_P2;Temp;Humidity;BMP_temperature;BMP_pressure;BME280_temperature;BME280_humidity;BME280_pressure;Samples;Min_cycle;Max_cycle;Signal;HPM_P1;HPM_P2
2022/02/09 00:07:50;;;;;;;8.70;3.90;;;;;;;3.31;88.96;99886.86;430545;1271;142993;-61
2022/02/09 00:18:05;;;;;;;5.10;3.00;;;;;;;3.27;89.15;99905.64;429825;1271;141787;-60
2022/02/09 00:28:27;;;;;;;5.30;3.30;;;;;;;3.15;89.17;99919.14;434731;1270;309523;-61
2022/02/09 01:02:39;;;;;;;4.70;3.70;;;;;;;2.82;90.29;99955.15;428676;1280;388311;-60
2022/02/09 02:02:14;;;;;;;10.80;5.70;;;;;;;2.86;90.38;99976.83;430087;1273;144308;-60
2022/02/09 02:12:22;;;;;;;6.70;5.30;;;;;;;2.93;90.95;99957.98;429426;1274;142281;-61
2022/02/09 02:22:44;;;;;;;10.00;5.90;;;;;;;2.71;90.41;99950.93;429830;1274;141894;-61
2022/02/09 02:43:42;;;;;;;12.00;7.80;;;;;;;2.82;92.19;99978.48;429543;1274;197241;-61
2022/02/09 03:14:42;;;;;;;11.90;8.20;;;;;;;2.97;92.62;99988.82;430810;1274;141443;-62
2022/02/09 03:25:19;;;;;;;12.60;9.60;;;;;;;3.18;92.75;99999.85;429846;1274;142039;-61
2022/02/09 03:46:12;;;;;;;11.30;9.70;;;;;;;3.26;92.54;100006.23;429596;1274;142436;-60
2022/02/09 03:56:30;;;;;;;12.90;9.30;;;;;;;3.28;92.88;100005.63;431181;1274;141710;-62
2022/02/09 04:06:37;;;;;;;13.00;8.60;;;;;;;3.32;92.89;100007.45;429237;1274;142161;-62
2022/02/09 04:16:55;;;;;;;10.30;7.50;;;;;;;3.37;92.98;100002.80;446886;1272;141871;-62
2022/02/09 04:37:33;;;;;;;10.70;6.80;;;;;;;3.49;92.57;100019.45;430492;1274;141381;-61
2022/02/09 04:47:51;;;;;;;8.90;6.80;;;;;;;3.41;92.34;100010.99;430185;1274;141460;-60
2022/02/09 04:58:03;;;;;;;10.70;5.70;;;;;;;3.40;92.73;100014.15;431398;1271;141446;-62
2022/02/09 05:19:13;;;;;;;8.00;4.70;;;;;;;3.84;92.37;100029.73;432384;1271;141166;-61
2022/02/09 05:29:15;;;;;;;7.90;6.10;;;;;;;3.90;92.16;100031.96;433102;1271;141284;-60
2022/02/09 05:39:20;;;;;;;5.50;4.60;;;;;;;3.97;92.37;100028.83;430768;1271;141109;-62
2022/02/09 05:49:37;;;;;;;7.40;4.10;;;;;;;4.06;92.22;100028.20;433684;1271;140579;-60
2022/02/09 05:59:43;;;;;;;8.70;5.90;;;;;;;4.16;91.82;100043.52;431822;1271;144872;-60
2022/02/09 06:09:49;;;;;;;6.90;4.30;;;;;;;4.24;91.78;100047.26;431419;1270;146388;-61
2022/02/09 06:19:55;;;;;;;8.50;6.10;;;;;;;4.31;91.51;100057.41;437355;1270;141810;-61
2022/02/09 06:30:01;;;;;;;7.60;6.40;;;;;;;4.38;91.54;100057.57;432663;1271;141722;-61
2022/02/09 06:40:10;;;;;;;11.70;8.50;;;;;;;4.42;91.57;100053.99;430177;1271;142018;-61
2022/02/09 06:50:23;;;;;;;12.10;9.90;;;;;;;4.43;91.72;100054.12;431368;1270;142201;-61
2022/02/09 07:00:30;;;;;;;11.60;9.70;;;;;;;4.50;91.93;100049.56;430619;1270;141801;-61
2022/02/09 07:10:36;;;;;;;11.20;10.00;;;;;;;4.69;92.25;100047.42;436181;1271;145655;-62
2022/02/09 07:20:53;;;;;;;11.70;9.90;;;;;;;4.92;92.23;100055.35;436751;1271;142289;-61
2022/02/09 07:31:00;;;;;;;10.00;8.90;;;;;;;5.13;92.09;100061.58;432299;1270;142420;-60
2022/02/09 07:41:06;;;;;;;7.80;7.00;;;;;;;5.25;91.50;100053.89;433120;1270;141039;-61
2022/02/09 07:51:16;;;;;;;7.80;6.40;;;;;;;5.37;90.82;100053.15;433602;1270;141442;-61
2022/02/09 08:01:23;;;;;;;4.30;3.90;;;;;;;5.46;90.11;100059.09;438519;1270;141800;-60
2022/02/09 08:11:35;;;;;;;6.00;4.30;;;;;;;5.55;89.50;100065.88;435374;1271;141277;-62
2022/02/09 08:42:26;;;;;;;3.20;2.50;;;;;;;5.96;87.57;100051.38;442165;1269;142489;-65
2022/02/09 08:52:32;;;;;;;2.60;1.80;;;;;;;6.09;87.36;100037.52;439896;1270;143171;-62
2022/02/09 09:02:43;;;;;;;4.60;2.30;;;;;;;6.44;87.10;100039.48;444570;1270;145604;-64
2022/02/09 10:36:14;;;;;;;12.00;8.90;;;;;;;6.47;90.16;100008.41;431372;1270;141562;-59
2022/02/09 10:46:21;;;;;;;10.70;9.20;;;;;;;6.67;90.07;100016.50;431144;1270;142344;-60
2022/02/09 10:56:29;;;;;;;11.50;9.60;;;;;;;6.75;89.78;100021.02;431909;1270;142122;-64
2022/02/09 11:06:39;;;;;;;12.20;10.70;;;;;;;6.78;89.69;100016.05;432039;1270;142614;-63
2022/02/09 11:16:47;;;;;;;11.90;9.80;;;;;;;6.80;89.44;100007.92;432990;1270;143081;-63
2022/02/09 11:26:57;;;;;;;14.70;11.40;;;;;;;6.89;89.36;100007.24;431739;1271;162885;-62
2022/02/09 11:37:12;;;;;;;12.10;10.60;;;;;;;6.97;89.43;100007.95;430838;1271;141323;-68
2022/02/09 11:47:58;;;;;;;12.70;10.70;;;;;;;6.94;89.63;100011.56;431179;1271;142646;-60
2022/02/09 12:09:13;;;;;;;9.40;8.50;;;;;;;6.72;89.47;100006.38;419331;1309;600826;-61
2022/02/09 12:19:27;;;;;;;9.40;8.40;;;;;;;6.77;89.56;100005.30;426800;1284;180341;-71
2022/02/09 12:29:35;;;;;;;8.60;7.50;;;;;;;6.83;89.08;99997.04;428646;1283;142120;-67
2022/02/09 12:39:50;;;;;;;10.20;7.30;;;;;;;6.88;88.80;99988.66;426494;1283;140223;-59
2022/02/09 12:49:56;;;;;;;10.10;6.40;;;;;;;6.94;88.86;99997.30;427955;1281;141938;-62
2022/02/09 13:00:02;;;;;;;8.50;6.00;;;;;;;6.97;88.76;99994.69;426618;1281;141488;-60
2022/02/09 13:10:09;;;;;;;6.40;5.80;;;;;;;6.98;88.85;99987.52;427615;1281;140984;-60
2022/02/09 13:20:33;;;;;;;6.50;5.50;;;;;;;7.12;88.42;99985.88;429036;1281;140895;-60
2022/02/09 13:52:02;;;;;;;5.60;5.10;;;;;;;6.93;88.35;99975.40;428157;1278;142823;-61
2022/02/09 14:12:47;;;;;;;6.10;5.50;;;;;;;6.63;88.73;99982.37;429270;1276;140811;-58
2022/02/09 14:54:27;;;;;;;6.60;5.90;;;;;;;6.39;87.99;99964.20;429882;1276;141057;-60
2022/02/09 15:04:41;;;;;;;7.10;6.40;;;;;;;6.39;87.82;99964.04;429453;1276;141781;-59
2022/02/09 15:15:02;;;;;;;7.40;6.30;;;;;;;6.37;87.43;99962.58;429940;1276;141587;-60
2022/02/09 15:25:16;;;;;;;8.30;6.40;;;;;;;6.31;87.18;99964.02;429778;1276;141223;-61
2022/02/09 15:35:29;;;;;;;6.80;5.50;;;;;;;6.27;87.05;99965.90;431121;1276;140871;-60
2022/02/09 16:06:44;;;;;;;8.00;6.30;;;;;;;6.19;86.47;99968.17;428811;1275;141749;-63
2022/02/09 16:17:19;;;;;;;6.80;6.10;;;;;;;6.20;86.36;99958.89;431262;1271;141841;-67
2022/02/09 16:38:02;;;;;;;10.20;6.90;;;;;;;6.15;86.01;99955.60;432131;1271;141214;-66
2022/02/09 16:48:09;;;;;;;9.50;8.00;;;;;;;6.21;85.91;99953.30;430212;1271;141374;-64
2022/02/09 17:19:03;;;;;;;10.90;7.50;;;;;;;6.16;85.63;99948.79;431510;1273;141020;-65
2022/02/09 17:29:08;;;;;;;8.20;6.80;;;;;;;6.13;85.37;99946.63;431426;1273;141499;-64
2022/02/09 17:53:22;;;;;;;6.20;5.40;;;;;;;6.13;85.17;99942.98;430395;1273;141280;-66
2022/02/09 18:00:26;;;;;;;5.90;4.90;;;;;;;6.21;83.75;99939.37;430424;1271;142450;-69
2022/02/09 18:10:47;;;;;;;6.10;4.50;;;;;;;6.21;83.28;99942.16;431351;1272;143914;-69
2022/02/09 18:31:32;;;;;;;3.10;2.80;;;;;;;6.23;82.32;99942.93;430373;1272;141775;-64
2022/02/09 19:02:39;;;;;;;4.40;2.80;;;;;;;6.28;81.40;99952.64;433313;1271;141944;-61
2022/02/09 19:54:39;;;;;;;6.80;4.50;;;;;;;5.64;82.71;99963.97;429587;1272;140689;-62
2022/02/09 20:04:46;;;;;;;9.40;6.40;;;;;;;5.59;82.76;99971.26;430137;1271;141367;-61
2022/02/09 20:14:57;;;;;;;7.80;5.80;;;;;;;5.51;82.84;99974.16;429273;1274;141405;-62
2022/02/09 20:25:03;;;;;;;12.30;8.40;;;;;;;5.44;83.04;99975.98;431089;1271;141443;-63
2022/02/09 20:35:12;;;;;;;9.40;7.40;;;;;;;5.40;83.13;99965.19;429965;1271;140735;-59
2022/02/09 20:45:24;;;;;;;11.10;7.90;;;;;;;5.37;83.52;99964.42;436442;1271;141961;-62
2022/02/09 20:55:30;;;;;;;10.30;7.90;;;;;;;5.33;83.74;99969.05;440945;1271;141702;-57
2022/02/09 21:05:44;;;;;;;8.60;6.70;;;;;;;5.30;83.94;99975.77;430887;1271;141152;-61
2022/02/09 21:16:07;;;;;;;7.80;6.60;;;;;;;5.29;84.27;99982.23;432179;1271;142245;-63
2022/02/09 21:26:37;;;;;;;10.80;7.50;;;;;;;5.33;84.37;99982.80;430674;1271;141530;-62
2022/02/09 21:57:38;;;;;;;11.40;8.20;;;;;;;5.35;84.64;99978.53;429786;1272;143951;-61
2022/02/09 22:28:36;;;;;;;7.70;6.10;;;;;;;5.27;84.58;99970.16;430523;1271;140820;-62
2022/02/09 22:49:20;;;;;;;9.70;8.00;;;;;;;5.19;84.93;99964.20;430406;1272;143158;-62
2022/02/09 22:59:31;;;;;;;9.10;7.60;;;;;;;5.10;85.51;99963.13;430490;1272;141011;-62
2022/02/09 23:09:47;;;;;;;10.00;8.50;;;;;;;4.99;86.00;99958.27;429620;1273;141005;-63
2022/02/09 23:20:26;;;;;;;11.00;9.50;;;;;;;4.87;86.46;99950.37;430578;1273;142112;-61
